Time;durP1;ratioP1;P1;durP2;ratioP2;P2;SDS_P1;SDS_P2;PMS_P1;PMS_P2;Temp;Humidity;BMP_temperature;BMP_pressure;BME280_temperature;BME280_humidity;BME280_pressure;Samples;Min_cycle;Max_cycle;Signal;HPM_P1;HPM_P2
2023/05/27 00:04:45;;;;;;;10.00;2.40;;;;;;;12.49;46.19;98728.63;10482964;28;20174;-70
2023/05/27 00:10:06;;;;;;;8.65;2.08;;;;;;;12.50;46.08;98724.50;10482962;28;20111;-70
2023/05/27 00:15:27;;;;;;;12.95;2.50;;;;;;;12.41;46.34;98725.94;10468776;28;20123;-70
2023/05/27 00:20:48;;;;;;;9.50;2.45;;;;;;;12.36;46.83;98718.56;10482762;28;20123;-70
2023/05/27 00:26:09;;;;;;;8.93;2.30;;;;;;;12.28;46.29;98724.28;10468917;28;20580;-70
2023/05/27 00:31:31;;;;;;;11.70;2.70;;;;;;;12.19;46.34;98721.44;10468701;28;20124;-70
2023/05/27 00:36:52;;;;;;;9.10;2.90;;;;;;;12.13;46.21;98724.50;10497282;28;20141;-70
2023/05/27 00:42:13;;;;;;;9.23;2.35;;;;;;;12.03;46.62;98720.94;10496980;28;20116;-70
2023/05/27 00:47:33;;;;;;;8.40;2.28;;;;;;;11.98;46.46;98724.75;10468350;28;20094;-70
2023/05/27 00:52:55;;;;;;;9.20;2.38;;;;;;;11.94;46.44;98716.03;10454320;28;20506;-69
2023/05/27 00:58:18;;;;;;;9.07;2.25;;;;;;;11.84;46.42;98709.66;10467842;28;20527;-69
2023/05/27 01:03:41;;;;;;;8.52;2.28;;;;;;;11.72;47.13;98710.16;10454469;28;20171;-70
2023/05/27 01:09:03;;;;;;;8.48;2.10;;;;;;;11.66;47.12;98706.88;10454267;28;20052;-69
2023/05/27 01:14:24;;;;;;;8.40;2.20;;;;;;;11.58;46.88;98713.88;10474492;28;20470;-70
2023/05/27 01:19:44;;;;;;;8.27;2.53;;;;;;;11.52;46.89;98707.81;10474949;28;20475;-70
2023/05/27 01:25:06;;;;;;;12.38;2.22;;;;;;;11.38;47.54;98705.38;10474897;28;20124;-70
2023/05/27 01:30:27;;;;;;;10.48;2.45;;;;;;;11.29;47.39;98714.44;10488867;28;20053;-70
2023/05/27 01:35:53;;;;;;;9.88;2.42;;;;;;;11.24;47.74;98703.50;10460682;28;20219;-70
2023/05/27 01:41:14;;;;;;;8.65;2.35;;;;;;;11.15;47.69;98708.44;10474592;28;20115;-71
2023/05/27 01:46:34;;;;;;;7.78;2.85;;;;;;;11.11;47.64;98713.72;10474790;28;20079;-71
2023/05/27 01:51:55;;;;;;;9.38;2.45;;;;;;;11.01;48.21;98712.91;10474824;28;20423;-70
2023/05/27 01:57:16;;;;;;;12.10;2.63;;;;;;;10.98;48.21;98714.03;10474056;28;20120;-70
2023/05/27 02:02:37;;;;;;;10.15;3.08;;;;;;;10.91;48.32;98708.56;10460212;28;20586;-70
2023/05/27 02:07:58;;;;;;;11.82;2.53;;;;;;;10.80;48.94;98704.91;10502786;28;20044;-70
2023/05/27 02:13:19;;;;;;;9.80;2.95;;;;;;;10.79;48.97;98708.28;10459887;28;20170;-70
2023/05/27 02:18:40;;;;;;;12.45;3.08;;;;;;;10.76;49.23;98715.00;10473213;28;20147;-70
2023/05/27 02:24:02;;;;;;;14.43;3.40;;;;;;;10.67;49.06;98710.06;10459010;28;20494;-70
2023/05/27 02:29:23;;;;;;;10.48;3.15;;;;;;;10.57;49.85;98709.97;10486658;28;20124;-70
2023/05/27 02:34:44;;;;;;;8.50;2.90;;;;;;;10.49;49.88;98704.47;10501323;28;20470;-70
2023/05/27 02:40:08;;;;;;;12.90;3.00;;;;;;;10.38;50.04;98710.50;10472712;28;20068;-69
2023/05/27 02:45:29;;;;;;;12.73;2.85;;;;;;;10.31;50.45;98722.47;10472242;28;20483;-70
2023/05/27 02:50:50;;;;;;;12.43;3.10;;;;;;;10.25;50.71;98713.59;10458217;28;20064;-70
2023/05/27 02:56:11;;;;;;;10.77;2.50;;;;;;;10.19;50.97;98715.84;10457612;28;20127;-70
2023/05/27 03:01:32;;;;;;;13.25;2.65;;;;;;;10.15;51.02;98715.50;10457361;28;20060;-69
2023/05/27 03:06:54;;;;;;;10.40;2.70;;;;;;;10.18;51.08;98714.38;10470975;28;20120;-70
2023/05/27 03:12:15;;;;;;;16.00;3.25;;;;;;;10.12;51.52;98708.25;10484581;28;20064;-69
2023/05/27 03:17:36;;;;;;;11.38;2.38;;;;;;;10.17;51.62;98713.63;10456964;28;20119;-69
2023/05/27 03:22:58;;;;;;;8.77;2.33;;;;;;;10.22;52.28;98717.53;10470780;28;20123;-70
2023/05/27 03:28:19;;;;;;;12.88;2.88;;;;;;;10.28;52.05;98716.00;10456618;28;20056;-69
2023/05/27 03:33:41;;;;;;;12.50;2.90;;;;;;;10.36;52.37;98723.56;10469666;28;20139;-70
2023/05/27 03:39:04;;;;;;;12.38;2.42;;;;;;;10.48;52.12;98728.09;10455966;28;20045;-70
2023/05/27 03:44:27;;;;;;;10.85;2.70;;;;;;;10.53;52.24;98732.72;10470354;28;20068;-70
2023/05/27 03:49:48;;;;;;;14.07;2.92;;;;;;;10.68;52.63;98719.94;10455577;28;20119;-70
2023/05/27 03:55:11;;;;;;;12.38;3.13;;;;;;;10.88;53.25;98730.72;10456053;28;20116;-70
2023/05/27 04:00:35;;;;;;;12.68;2.95;;;;;;;11.06;53.00;98725.13;10455805;28;20041;-70
2023/05/27 04:05:56;;;;;;;11.73;2.88;;;;;;;11.26;53.00;98732.34;10468804;28;20127;-70
2023/05/27 04:11:18;;;;;;;14.05;2.58;;;;;;;11.51;52.64;98732.25;10483211;28;20044;-69
2023/05/27 04:16:41;;;;;;;11.70;2.97;;;;;;;11.71;52.41;98733.84;10468854;28;20135;-70
2023/05/27 04:22:01;;;;;;;11.23;3.10;;;;;;;11.91;52.60;98747.97;10468758;28;20465;-70
2023/05/27 04:27:24;;;;;;;15.82;2.90;;;;;;;12.11;52.58;98754.41;10468470;28;20124;-70
2023/05/27 04:32:46;;;;;;;13.02;2.53;;;;;;;12.32;52.43;98757.44;10468517;28;20057;-70
2023/05/27 04:38:07;;;;;;;15.55;2.97;;;;;;;12.55;52.17;98752.22;10468499;28;20506;-70
2023/05/27 04:43:42;;;;;;;13.63;2.80;;;;;;;12.78;51.86;98751.84;10481889;28;20128;-70
2023/05/27 04:49:07;;;;;;;14.20;2.83;;;;;;;13.08;52.02;98756.16;10476963;28;20112;-70
2023/05/27 04:54:29;;;;;;;10.60;2.85;;;;;;;13.45;51.52;98753.97;10505173;28;20044;-71
2023/05/27 05:00:36;;;;;;;9.00;2.65;;;;;;;13.78;50.94;98756.28;10490007;28;20060;-69
2023/05/27 05:05:39;;;;;;;13.20;2.88;;;;;;;14.09;50.58;98750.00;10489546;28;20462;-70
2023/05/27 05:11:01;;;;;;;16.60;2.85;;;;;;;14.36;49.71;98752.56;10475692;28;20402;-70
2023/05/27 05:16:23;;;;;;;12.75;3.40;;;;;;;14.44;48.46;98755.94;10489500;28;20115;-70
2023/05/27 05:21:44;;;;;;;12.10;3.10;;;;;;;14.54;49.03;98765.81;10475657;28;20550;-70
2023/05/27 05:27:08;;;;;;;12.80;3.20;;;;;;;15.17;48.08;98750.34;10475462;28;20527;-70
2023/05/27 05:32:29;;;;;;;14.85;3.40;;;;;;;15.70;47.58;98753.03;10461656;28;20044;-70
2023/05/27 05:37:50;;;;;;;11.75;3.20;;;;;;;16.33;46.08;98753.41;10474571;28;20045;-70
2023/05/27 05:43:11;;;;;;;13.75;3.35;;;;;;;16.25;45.31;98756.44;10474723;28;20041;-70
2023/05/27 05:48:33;;;;;;;19.08;3.35;;;;;;;16.66;44.99;98754.00;10474228;28;20163;-70
2023/05/27 05:53:54;;;;;;;14.60;3.33;;;;;;;17.17;44.57;98756.97;10487977;28;20068;-70
2023/05/27 05:59:15;;;;;;;13.18;3.42;;;;;;;17.51;42.24;98768.78;10487879;28;20113;-71
2023/05/27 06:04:36;;;;;;;14.20;3.58;;;;;;;17.73;42.04;98767.22;10473814;28;20124;-71
2023/05/27 06:09:57;;;;;;;11.07;3.22;;;;;;;18.10;41.16;98774.88;10459812;28;20111;-71
2023/05/27 06:15:27;;;;;;;10.15;2.90;;;;;;;18.46;41.04;98776.84;10474059;28;20129;-71
2023/05/27 06:20:48;;;;;;;12.85;3.67;;;;;;;19.04;40.01;98775.63;10473104;28;20044;-71
2023/05/27 06:26:11;;;;;;;12.33;3.17;;;;;;;19.45;39.46;98780.47;10472811;28;20120;-71
2023/05/27 06:31:38;;;;;;;12.43;3.17;;;;;;;20.35;38.51;98771.25;10486302;28;20598;-70
2023/05/27 06:36:59;;;;;;;12.25;3.20;;;;;;;21.04;37.75;98765.09;10458594;28;20060;-71
2023/05/27 06:42:22;;;;;;;16.20;3.38;;;;;;;21.09;35.44;98766.72;10485856;28;20513;-71
2023/05/27 06:47:54;;;;;;;15.95;3.50;;;;;;;21.51;35.95;98758.50;10473370;28;20166;-71
2023/05/27 06:53:15;;;;;;;11.20;3.47;;;;;;;21.66;34.28;98757.72;10471455;28;20060;-71
2023/05/27 06:58:47;;;;;;;13.13;3.20;;;;;;;21.82;33.82;98757.63;10485064;28;20200;-71
2023/05/27 07:04:10;;;;;;;11.15;3.13;;;;;;;22.48;34.09;98756.59;10471566;28;20048;-71
2023/05/27 07:09:44;;;;;;;10.05;2.55;;;;;;;22.44;33.12;98775.66;10471400;28;20136;-71
2023/05/27 07:15:06;;;;;;;9.95;3.13;;;;;;;22.66;33.00;98770.03;10484591;28;20124;-71
2023/05/27 07:20:27;;;;;;;11.20;2.73;;;;;;;23.11;31.98;98773.09;10470787;28;20589;-70
2023/05/27 07:25:49;;;;;;;10.95;2.63;;;;;;;23.25;31.98;98760.72;10456729;28;20045;-70
2023/05/27 07:31:11;;;;;;;10.40;2.92;;;;;;;23.09;31.28;98764.50;10470519;28;20048;-70
2023/05/27 07:36:39;;;;;;;11.48;3.00;;;;;;;23.09;31.44;98761.63;10458086;28;20546;-71
2023/05/27 07:42:01;;;;;;;12.70;3.10;;;;;;;23.05;31.58;98761.47;10470014;28;20050;-71
2023/05/27 07:47:23;;;;;;;13.38;3.38;;;;;;;23.61;31.14;98761.94;10456007;28;20119;-70
2023/05/27 07:52:44;;;;;;;11.60;3.28;;;;;;;24.74;30.32;98754.63;10498338;28;20086;-70
2023/05/27 07:58:16;;;;;;;11.52;2.70;;;;;;;25.65;28.90;98744.81;10483142;28;20041;-70
2023/05/27 08:03:49;;;;;;;10.43;2.80;;;;;;;25.87;27.16;98751.09;10458677;28;20063;-71
2023/05/27 08:09:09;;;;;;;10.65;2.80;;;;;;;25.16;26.84;98746.47;10455296;28;20063;-70
2023/05/27 08:14:50;;;;;;;14.30;3.63;;;;;;;25.29;26.50;98753.25;10485619;28;20060;-71
2023/05/27 08:20:31;;;;;;;9.40;3.23;;;;;;;25.63;26.27;98745.50;10455608;28;20049;-70
2023/05/27 08:26:11;;;;;;;13.40;3.50;;;;;;;26.72;25.42;98732.13;10485421;28;20509;-70
2023/05/27 08:31:51;;;;;;;10.90;2.40;;;;;;;26.36;24.89;98725.66;10473033;28;20116;-70
2023/05/27 08:37:13;;;;;;;11.75;2.88;;;;;;;25.67;24.95;98717.00;10454802;28;20064;-71
2023/05/27 08:42:36;;;;;;;13.63;2.75;;;;;;;25.31;25.14;98724.72;10468490;28;20185;-70
2023/05/27 08:47:59;;;;;;;8.15;2.70;;;;;;;25.45;25.06;98724.31;10455120;28;20068;-71
2023/05/27 08:53:33;;;;;;;12.13;2.63;;;;;;;25.68;25.68;98714.88;10456685;28;20479;-71
2023/05/27 08:58:54;;;;;;;10.77;2.72;;;;;;;26.74;25.33;98703.53;10482519;28;20046;-71
2023/05/27 09:04:16;;;;;;;11.73;3.35;;;;;;;26.81;24.71;98701.50;10453776;28;20062;-71
2023/05/27 09:09:38;;;;;;;9.02;2.80;;;;;;;26.16;23.64;98700.22;10467798;28;20506;-71
2023/05/27 09:14:59;;;;;;;;;;;;;;;25.22;24.34;98698.06;10468051;28;20040;-71
2023/05/27 09:20:27;;;;;;;9.20;3.13;;;;;;;25.30;25.07;98692.56;10496317;28;19920;-71
2023/05/27 09:25:49;;;;;;;9.02;2.58;;;;;;;26.06;25.24;98680.00;10453704;28;20059;-71
2023/05/27 09:31:11;;;;;;;10.20;3.65;;;;;;;26.35;23.91;98682.00;10467722;28;20044;-70
2023/05/27 09:36:32;;;;;;;11.10;3.05;;;;;;;25.34;24.00;98686.94;10474744;28;20045;-71
2023/05/27 09:41:53;;;;;;;13.00;3.72;;;;;;;25.06;24.42;98689.09;10460426;28;20513;-71
2023/05/27 09:47:13;;;;;;;11.63;3.65;;;;;;;25.03;25.24;98690.44;10460332;28;20045;-71
2023/05/27 09:52:37;;;;;;;13.65;3.70;;;;;;;24.94;25.06;98686.63;10502846;28;20049;-71
2023/05/27 09:58:08;;;;;;;9.40;3.05;;;;;;;25.22;25.04;98680.19;10464749;28;20044;-71
2023/05/27 10:03:28;;;;;;;8.82;3.42;;;;;;;26.01;24.81;98664.13;10473512;28;20063;-71
2023/05/27 10:08:49;;;;;;;8.48;2.65;;;;;;;26.15;23.87;98665.16;10487383;28;20049;-71
2023/05/27 10:14:11;;;;;;;11.20;3.45;;;;;;;25.38;24.78;98652.75;10445818;28;20398;-71
2023/05/27 10:19:32;;;;;;;11.27;3.30;;;;;;;24.79;24.62;98654.13;10487011;28;20486;-71
2023/05/27 10:24:53;;;;;;;11.30;3.05;;;;;;;24.83;25.15;98647.81;10486981;28;20037;-71
2023/05/27 10:30:14;;;;;;;12.20;3.30;;;;;;;24.81;25.16;98650.63;10486785;28;20546;-71
2023/05/27 10:35:42;;;;;;;12.90;3.60;;;;;;;24.90;25.75;98635.13;10458499;28;20417;-71
2023/05/27 10:41:03;;;;;;;14.75;2.85;;;;;;;25.66;25.42;98626.19;10472710;28;20040;-71
2023/05/27 10:46:24;;;;;;;13.17;3.30;;;;;;;25.16;24.45;98629.34;10500746;28;20044;-72
2023/05/27 10:51:47;;;;;;;12.45;3.45;;;;;;;24.85;24.41;98633.56;10458787;28;20045;-71
2023/05/27 10:57:08;;;;;;;9.43;2.75;;;;;;;24.65;25.28;98627.34;10471682;28;20041;-71
2023/05/27 11:02:36;;;;;;;10.38;3.58;;;;;;;24.44;26.06;98623.25;10471603;28;20048;-71
2023/05/27 11:08:00;;;;;;;10.05;3.00;;;;;;;25.17;25.86;98610.81;10472131;28;20049;-71
2023/05/27 11:13:22;;;;;;;13.07;3.45;;;;;;;25.43;24.97;98602.13;10485104;28;20463;-71
2023/05/27 11:18:47;;;;;;;10.88;2.70;;;;;;;24.93;24.83;98605.22;10470868;28;20281;-71
2023/05/27 11:24:15;;;;;;;12.32;3.15;;;;;;;24.60;24.62;98597.97;10484577;28;20040;-71
2023/05/27 11:29:40;;;;;;;13.13;3.47;;;;;;;23.97;25.84;98597.00;10470451;28;20091;-71
2023/05/27 11:35:01;;;;;;;9.15;3.85;;;;;;;24.37;26.07;98593.81;10456990;28;20518;-71
2023/05/27 11:40:22;;;;;;;8.27;3.30;;;;;;;24.31;25.18;98581.47;10469993;28;20126;-70
2023/05/27 11:45:43;;;;;;;9.77;2.40;;;;;;;24.18;25.03;98583.28;10469867;28;20051;-71
2023/05/27 11:51:04;;;;;;;10.52;3.22;;;;;;;23.81;24.63;98585.13;10470186;28;20519;-71
2023/05/27 11:56:26;;;;;;;7.88;2.38;;;;;;;23.84;24.32;98575.25;10468823;28;20485;-71
2023/05/27 12:01:46;;;;;;;8.85;2.72;;;;;;;23.65;24.06;98564.72;10469471;28;20052;-71
2023/05/27 12:07:07;;;;;;;9.23;2.60;;;;;;;23.53;24.42;98565.03;10469015;28;20044;-71
2023/05/27 12:12:41;;;;;;;8.65;3.40;;;;;;;23.81;24.03;98573.72;10458127;28;20075;-71
2023/05/27 12:18:02;;;;;;;8.35;2.60;;;;;;;23.96;23.76;98564.19;10497274;28;20044;-71
2023/05/27 12:23:23;;;;;;;10.70;3.05;;;;;;;24.18;22.97;98566.19;10482384;28;20036;-71
2023/05/27 12:28:44;;;;;;;7.82;2.67;;;;;;;23.98;23.21;98566.34;10482092;28;20052;-71
2023/05/27 12:34:05;;;;;;;10.07;2.58;;;;;;;23.85;23.56;98559.59;10468378;28;20037;-71
2023/05/27 12:39:26;;;;;;;10.38;3.10;;;;;;;23.72;23.17;98549.22;10496989;28;20051;-71
2023/05/27 12:44:47;;;;;;;11.20;3.65;;;;;;;23.67;23.69;98539.84;10468222;28;20502;-70
2023/05/27 12:50:08;;;;;;;14.38;3.25;;;;;;;23.64;24.07;98534.75;10481862;28;20045;-70
2023/05/27 12:55:29;;;;;;;9.38;3.15;;;;;;;23.47;24.55;98532.81;10467764;28;20434;-71
2023/05/27 13:00:51;;;;;;;8.23;2.95;;;;;;;23.25;25.68;98524.31;10481790;28;20047;-71
2023/05/27 13:06:12;;;;;;;9.52;3.15;;;;;;;23.18;24.83;98523.44;10481479;28;20060;-70
2023/05/27 13:11:34;;;;;;;10.55;3.60;;;;;;;23.26;24.71;98503.75;10475746;28;20047;-71
2023/05/27 13:16:56;;;;;;;12.55;2.90;;;;;;;23.38;25.23;98509.78;10475882;28;20041;-71
2023/05/27 13:22:17;;;;;;;10.25;3.10;;;;;;;23.29;25.47;98495.97;10489192;28;20032;-71
2023/05/27 13:27:38;;;;;;;8.82;2.83;;;;;;;23.38;25.05;98501.25;10475212;28;20425;-71
2023/05/27 13:32:59;;;;;;;14.48;3.60;;;;;;;23.25;24.92;98485.19;10503645;28;20398;-71
2023/05/27 13:38:20;;;;;;;9.10;2.75;;;;;;;23.08;24.80;98497.50;10485886;28;20136;-71
2023/05/27 13:43:41;;;;;;;9.25;2.90;;;;;;;22.92;24.88;98503.44;10488333;28;20508;-71
2023/05/27 13:49:02;;;;;;;12.30;3.28;;;;;;;22.65;24.83;98481.91;10488209;28;20051;-70
2023/05/27 13:54:23;;;;;;;8.82;2.95;;;;;;;22.43;25.26;98478.38;10488399;28;20384;-71
2023/05/27 13:59:45;;;;;;;10.80;3.08;;;;;;;22.20;26.02;98474.06;10473961;28;20383;-71
2023/05/27 14:05:06;;;;;;;10.63;3.03;;;;;;;22.26;26.54;98471.41;10473413;28;20072;-71
2023/05/27 14:10:27;;;;;;;11.70;3.10;;;;;;;22.54;26.59;98465.91;10487521;28;20394;-71
2023/05/27 14:15:50;;;;;;;11.57;3.28;;;;;;;22.64;26.71;98466.25;10473217;28;20051;-70
2023/05/27 14:21:11;;;;;;;9.48;3.17;;;;;;;22.55;26.93;98458.84;10486277;28;20036;-71
2023/05/27 14:26:32;;;;;;;9.05;3.33;;;;;;;22.34;27.26;98457.47;10459073;28;20048;-70
2023/05/27 14:31:55;;;;;;;11.90;2.95;;;;;;;21.77;27.36;98455.53;10473575;28;20051;-70
2023/05/27 14:37:17;;;;;;;12.00;3.38;;;;;;;21.27;27.84;98446.66;10458727;28;20032;-70
2023/05/27 14:42:38;;;;;;;8.43;3.10;;;;;;;21.38;27.81;98439.97;10472084;28;20048;-71
2023/05/27 14:47:59;;;;;;;7.90;3.05;;;;;;;21.52;27.73;98433.34;10500756;28;20044;-70
2023/05/27 14:53:19;;;;;;;10.20;2.58;;;;;;;21.62;27.57;98425.91;10485814;28;20048;-71
2023/05/27 14:58:42;;;;;;;7.93;2.53;;;;;;;21.68;27.27;98420.44;10457826;28;20037;-71
2023/05/27 15:04:04;;;;;;;7.17;2.60;;;;;;;21.62;27.38;98420.25;10500019;28;20123;-71
2023/05/27 15:09:25;;;;;;;9.75;3.03;;;;;;;21.33;27.52;98414.94;10471325;28;20332;-70
2023/05/27 15:14:46;;;;;;;9.07;2.80;;;;;;;21.37;27.80;98415.06;10470855;28;20462;-71
2023/05/27 15:20:08;;;;;;;10.15;3.20;;;;;;;21.32;27.53;98410.63;10456651;28;20067;-70
2023/05/27 15:25:29;;;;;;;9.88;2.60;;;;;;;21.19;27.95;98415.13;10498842;28;20041;-71
2023/05/27 15:30:51;;;;;;;8.77;2.47;;;;;;;21.23;27.95;98409.59;10483732;28;20071;-71
2023/05/27 15:36:12;;;;;;;10.43;2.72;;;;;;;21.15;28.28;98403.63;10484065;28;20390;-71
2023/05/27 15:41:33;;;;;;;10.75;3.25;;;;;;;21.23;28.45;98401.09;10470172;28;20041;-70
2023/05/27 15:46:55;;;;;;;9.77;3.17;;;;;;;21.20;28.50;98393.13;10483863;28;20045;-71
2023/05/27 15:52:16;;;;;;;10.65;3.25;;;;;;;20.95;28.87;98388.69;10498325;28;20044;-71
2023/05/27 15:57:38;;;;;;;9.10;3.25;;;;;;;20.55;29.52;98385.75;10469384;28;20144;-70
2023/05/27 16:02:59;;;;;;;10.60;2.80;;;;;;;20.52;30.29;98373.63;10469214;28;20123;-70
2023/05/27 16:08:20;;;;;;;9.63;3.08;;;;;;;20.53;29.66;98365.84;10497968;28;20548;-71
2023/05/27 16:13:42;;;;;;;12.52;3.35;;;;;;;20.25;29.92;98369.00;10482978;28;20063;-70
2023/05/27 16:19:03;;;;;;;9.85;2.95;;;;;;;20.37;29.92;98362.38;10482477;28;20048;-71
2023/05/27 16:24:25;;;;;;;9.88;2.92;;;;;;;20.32;30.32;98352.97;10468838;28;20074;-70
2023/05/27 16:29:46;;;;;;;8.88;2.88;;;;;;;20.34;30.21;98347.38;10482610;28;20044;-71
2023/05/27 16:35:08;;;;;;;8.85;2.97;;;;;;;20.32;30.74;98349.41;10468478;28;20540;-70
2023/05/27 16:40:29;;;;;;;10.43;2.58;;;;;;;20.24;30.77;98339.22;10497942;28;20398;-70
2023/05/27 16:45:50;;;;;;;9.68;2.83;;;;;;;20.24;30.88;98342.03;10463351;28;20466;-71
2023/05/27 16:51:11;;;;;;;8.90;2.70;;;;;;;20.17;30.99;98337.53;10476628;28;20048;-70
2023/05/27 16:56:32;;;;;;;9.43;2.75;;;;;;;20.07;31.34;98330.72;10476740;28;20044;-71
2023/05/27 17:01:53;;;;;;;9.70;3.20;;;;;;;20.10;31.22;98333.00;10476311;28;20072;-71
2023/05/27 17:07:14;;;;;;;10.05;2.88;;;;;;;20.06;31.20;98329.97;10475908;28;20045;-70
2023/05/27 17:12:35;;;;;;;8.48;3.00;;;;;;;20.01;31.32;98319.88;10490008;28;20147;-71
2023/05/27 17:17:56;;;;;;;8.35;2.92;;;;;;;19.89;31.62;98322.25;10475443;28;20087;-71
2023/05/27 17:23:16;;;;;;;8.13;2.80;;;;;;;19.85;31.83;98316.41;10475320;28;20041;-70
2023/05/27 17:28:38;;;;;;;11.68;3.05;;;;;;;19.79;32.12;98313.34;10503849;28;20119;-70
2023/05/27 17:33:59;;;;;;;11.50;3.08;;;;;;;19.65;32.15;98314.19;10503902;28;20037;-70
2023/05/27 17:39:22;;;;;;;10.25;2.53;;;;;;;19.30;32.88;98312.03;10461882;28;20474;-70
2023/05/27 17:44:43;;;;;;;12.27;3.05;;;;;;;19.22;33.04;98308.13;10460664;28;20064;-70
2023/05/27 17:50:04;;;;;;;10.25;2.90;;;;;;;19.12;33.06;98314.06;10503378;28;20044;-70
2023/05/27 17:55:25;;;;;;;7.05;2.65;;;;;;;19.08;33.37;98313.88;10487127;28;20387;-70
2023/05/27 18:00:46;;;;;;;9.48;3.20;;;;;;;19.01;33.56;98312.91;10502746;28;20052;-71
2023/05/27 18:06:08;;;;;;;7.47;2.90;;;;;;;18.88;34.11;98308.06;10473924;28;20056;-71
2023/05/27 18:11:29;;;;;;;8.77;2.83;;;;;;;18.81;33.93;98300.69;10487670;28;20040;-71
2023/05/27 18:16:49;;;;;;;9.82;2.85;;;;;;;18.69;34.03;98297.34;10487152;28;20043;-70
2023/05/27 18:22:10;;;;;;;5.95;2.30;;;;;;;18.57;34.41;98294.66;10487109;28;20430;-70
2023/05/27 18:27:32;;;;;;;10.90;2.58;;;;;;;18.45;34.67;98296.97;10502111;28;20068;-70
2023/05/27 18:32:53;;;;;;;11.10;3.22;;;;;;;18.33;34.73;98297.09;10472910;28;20036;-70
2023/05/27 18:38:13;;;;;;;8.10;3.15;;;;;;;18.19;35.23;98304.94;10458778;28;20476;-70
2023/05/27 18:43:34;;;;;;;11.48;3.65;;;;;;;18.05;35.39;98312.75;10472334;28;20045;-70
2023/05/27 18:48:55;;;;;;;7.95;3.25;;;;;;;17.76;36.36;98302.94;10471906;28;20076;-71
2023/05/27 18:54:16;;;;;;;15.18;3.58;;;;;;;17.54;37.37;98313.81;10472115;28;20479;-70
2023/05/27 18:59:36;;;;;;;8.95;3.70;;;;;;;17.32;38.17;98321.19;10471737;28;20092;-70
2023/05/27 19:05:00;;;;;;;11.65;3.55;;;;;;;17.12;39.04;98318.09;10485240;28;20072;-70
2023/05/27 19:10:21;;;;;;;14.18;4.05;;;;;;;16.93;39.63;98315.69;10458190;28;20402;-70
2023/05/27 19:15:41;;;;;;;11.57;3.60;;;;;;;16.74;40.25;98340.09;10457375;28;20098;-70
2023/05/27 19:21:02;;;;;;;11.13;3.42;;;;;;;16.54;41.33;98330.53;10470800;28;20136;-70
2023/05/27 19:26:23;;;;;;;12.05;3.60;;;;;;;16.45;41.52;98337.84;10484975;28;20041;-70
2023/05/27 19:31:43;;;;;;;17.73;4.25;;;;;;;16.37;41.83;98348.66;10470770;28;20505;-70
2023/05/27 19:37:04;;;;;;;7.68;3.25;;;;;;;16.21;42.40;98342.13;10470105;28;20068;-71
2023/05/27 19:42:25;;;;;;;8.13;3.42;;;;;;;16.12;42.68;98340.97;10499148;28;20119;-70
2023/05/27 19:47:46;;;;;;;10.95;3.42;;;;;;;15.98;42.90;98343.00;10498794;28;20509;-70
2023/05/27 19:53:07;;;;;;;11.70;3.55;;;;;;;15.87;43.56;98338.16;10483911;28;20057;-70
2023/05/27 19:58:29;;;;;;;12.07;3.80;;;;;;;15.75;44.28;98329.75;10469644;28;20075;-69
2023/05/27 20:03:50;;;;;;;12.35;5.15;;;;;;;15.66;44.64;98327.81;10483656;28;20174;-70
2023/05/27 20:09:11;;;;;;;12.48;3.58;;;;;;;15.53;44.68;98329.16;10469628;28;20551;-70
2023/05/27 20:14:32;;;;;;;13.98;3.85;;;;;;;15.40;45.51;98339.00;10482951;28;20071;-70
2023/05/27 20:19:52;;;;;;;10.55;3.80;;;;;;;15.33;45.46;98339.25;10497821;28;20115;-70
2023/05/27 20:25:13;;;;;;;12.02;3.95;;;;;;;15.20;45.76;98348.34;10468802;28;20068;-70
2023/05/27 20:30:34;;;;;;;16.02;4.45;;;;;;;15.19;46.45;98350.41;10482705;28;20435;-70
2023/05/27 20:35:55;;;;;;;11.05;3.95;;;;;;;15.18;47.02;98351.75;10468538;28;20120;-70
2023/05/27 20:41:15;;;;;;;12.02;4.03;;;;;;;15.17;46.95;98344.69;10468409;28;20068;-70
2023/05/27 20:46:38;;;;;;;10.95;3.90;;;;;;;15.20;46.77;98348.34;10468050;28;20358;-70
2023/05/27 20:51:59;;;;;;;9.10;3.50;;;;;;;15.14;47.25;98357.88;10497070;28;20597;-70
2023/05/27 20:57:20;;;;;;;16.17;3.03;;;;;;;15.14;47.42;98343.81;10497046;28;20068;-70
2023/05/27 21:02:41;;;;;;;8.48;3.05;;;;;;;15.05;47.40;98344.66;10467971;28;20076;-70
2023/05/27 21:08:02;;;;;;;12.35;3.35;;;;;;;14.96;47.33;98337.13;10467798;28;20406;-70
2023/05/27 21:13:22;;;;;;;9.48;2.95;;;;;;;14.87;47.79;98349.22;10467853;28;20064;-70
2023/05/27 21:18:43;;;;;;;9.15;2.92;;;;;;;14.80;48.21;98341.75;10467732;28;20159;-70
2023/05/27 21:24:04;;;;;;;9.27;3.28;;;;;;;14.73;48.07;98346.28;10496341;28;20064;-70
2023/05/27 21:29:25;;;;;;;10.00;3.30;;;;;;;14.64;48.07;98340.75;10485512;28;20124;-70
2023/05/27 21:34:45;;;;;;;9.10;3.15;;;;;;;14.55;48.15;98343.06;10475230;28;20575;-70
2023/05/27 21:40:07;;;;;;;11.00;2.55;;;;;;;14.50;48.63;98344.19;10488750;28;20535;-70
2023/05/27 21:45:27;;;;;;;9.63;2.83;;;;;;;14.42;48.85;98340.09;10503681;28;20119;-70
2023/05/27 21:50:48;;;;;;;11.93;2.92;;;;;;;14.29;48.98;98328.13;10474497;28;20132;-70
2023/05/27 21:56:09;;;;;;;13.75;3.47;;;;;;;14.22;49.21;98334.69;10460537;28;20041;-70
2023/05/27 22:01:30;;;;;;;11.57;3.42;;;;;;;14.21;48.97;98329.69;10487617;28;20041;-70
2023/05/27 22:06:51;;;;;;;9.48;2.90;;;;;;;14.15;49.00;98338.47;10502743;28;20060;-70
2023/05/27 22:12:14;;;;;;;9.63;2.78;;;;;;;14.06;48.71;98330.13;10488233;28;20505;-70
2023/05/27 22:17:34;;;;;;;8.15;2.53;;;;;;;14.09;48.00;98328.91;10487516;28;20574;-70
2023/05/27 22:22:55;;;;;;;8.63;2.75;;;;;;;14.02;47.55;98317.31;10472989;28;20124;-70
2023/05/27 22:28:16;;;;;;;8.93;3.00;;;;;;;13.95;48.29;98309.84;10487076;28;20045;-70
2023/05/27 22:33:38;;;;;;;7.00;2.72;;;;;;;13.88;47.91;98308.00;10458703;28;20041;-70
2023/05/27 22:38:59;;;;;;;7.90;2.88;;;;;;;13.82;48.17;98302.00;10471943;28;20037;-70
2023/05/27 22:44:20;;;;;;;16.33;3.28;;;;;;;13.77;48.32;98300.28;10472539;28;20041;-70
2023/05/27 22:49:41;;;;;;;9.45;3.10;;;;;;;13.69;48.42;98294.13;10486222;28;20044;-70
2023/05/27 22:55:03;;;;;;;6.80;3.10;;;;;;;13.62;48.64;98290.22;10500771;28;20052;-70
2023/05/27 23:00:27;;;;;;;7.10;2.65;;;;;;;13.58;48.80;98286.41;10517882;23;20064;-68
2023/05/27 23:05:48;;;;;;;9.52;3.38;;;;;;;13.52;48.71;98283.22;10589199;22;20097;-71
2023/05/27 23:11:09;;;;;;;6.63;2.88;;;;;;;13.44;48.86;98278.56;10611464;27;20540;-70
2023/05/27 23:16:30;;;;;;;6.32;2.42;;;;;;;13.42;48.88;98270.03;10597182;27;20122;-70
2023/05/27 23:21:51;;;;;;;9.73;3.20;;;;;;;13.40;49.20;98269.13;10611211;27;20131;-70
2023/05/27 23:27:12;;;;;;;7.55;2.78;;;;;;;13.38;49.07;98266.94;10610959;27;20073;-70
2023/05/27 23:32:33;;;;;;;8.25;2.90;;;;;;;13.25;49.42;98264.69;10610715;27;20433;-70
2023/05/27 23:37:53;;;;;;;9.45;2.92;;;;;;;13.21;49.41;98252.47;10610553;27;20116;-70
2023/05/27 23:43:14;;;;;;;5.55;2.63;;;;;;;13.25;49.19;98258.34;10610339;27;20403;-71
2023/05/27 23:48:36;;;;;;;6.47;2.50;;;;;;;13.12;49.16;98251.94;10609901;27;20043;-71
2023/05/27 23:53:57;;;;;;;6.32;2.85;;;;;;;13.09;49.05;98249.59;10609828;27;20051;-71
2023/05/27 23:59:18;;;;;;;7.38;2.97;;;;;;;12.98;49.39;98239.78;10609771;27;20092;-71
